sensor_id;sensor_type;location;lat;lon;timestamp;temperature;humidity
69031;DHT22;56083;48.774;8.942;2023-04-15T00:01:23;1.80;99.90
69031;DHT22;56083;48.774;8.942;2023-04-15T00:03:53;1.80;99.90
69031;DHT22;56083;48.774;8.942;2023-04-15T00:06:20;1.80;99.90
69031;DHT22;56083;48.774;8.942;2023-04-15T00:08:46;1.80;99.90
69031;DHT22;56083;48.774;8.942;2023-04-15T00:11:12;1.70;99.90
69031;DHT22;56083;48.774;8.942;2023-04-15T00:13:39;1.70;99.90
69031;DHT22;56083;48.774;8.942;2023-04-15T00:16:05;1.60;99.90
69031;DHT22;56083;48.774;8.942;2023-04-15T00:18:32;1.60;99.90
69031;DHT22;56083;48.774;8.942;2023-04-15T00:20:58;1.60;99.90
69031;DHT22;56083;48.774;8.942;2023-04-15T00:23:24;1.60;99.90
69031;DHT22;56083;48.774;8.942;2023-04-15T00:25:50;1.50;99.90
69031;DHT22;56083;48.774;8.942;2023-04-15T00:28:16;1.50;99.90
69031;DHT22;56083;48.774;8.942;2023-04-15T00:30:42;1.60;99.90
69031;DHT22;56083;48.774;8.942;2023-04-15T00:33:08;1.50;99.90
69031;DHT22;56083;48.774;8.942;2023-04-15T00:35:34;1.50;99.90
69031;DHT22;56083;48.774;8.942;2023-04-15T00:38:01;1.40;99.90
69031;DHT22;56083;48.774;8.942;2023-04-15T00:40:26;1.40;99.90
69031;DHT22;56083;48.774;8.942;2023-04-15T00:42:52;1.40;99.90
69031;DHT22;56083;48.774;8.942;2023-04-15T00:45:18;1.30;99.90
69031;DHT22;56083;48.774;8.942;2023-04-15T00:47:44;1.30;99.90
69031;DHT22;56083;48.774;8.942;2023-04-15T00:50:10;1.20;99.90
69031;DHT22;56083;48.774;8.942;2023-04-15T00:52:37;1.20;99.90
69031;DHT22;56083;48.774;8.942;2023-04-15T00:55:04;1.20;99.90
69031;DHT22;56083;48.774;8.942;2023-04-15T00:57:30;1.20;99.90
69031;DHT22;56083;48.774;8.942;2023-04-15T00:59:56;1.20;99.90
69031;DHT22;56083;48.774;8.942;2023-04-15T01:02:22;1.20;99.90
69031;DHT22;56083;48.774;8.942;2023-04-15T01:04:48;1.20;99.90
69031;DHT22;56083;48.774;8.942;2023-04-15T01:07:14;1.20;99.90
69031;DHT22;56083;48.774;8.942;2023-04-15T01:09:41;1.10;99.90
69031;DHT22;56083;48.774;8.942;2023-04-15T01:12:07;1.10;99.90
69031;DHT22;56083;48.774;8.942;2023-04-15T01:14:34;1.10;99.90
69031;DHT22;56083;48.774;8.942;2023-04-15T01:17:00;1.10;99.90
69031;DHT22;56083;48.774;8.942;2023-04-15T01:19:26;1.10;99.90
69031;DHT22;56083;48.774;8.942;2023-04-15T01:21:53;1.10;99.90
69031;DHT22;56083;48.774;8.942;2023-04-15T01:24:18;1.10;99.90
69031;DHT22;56083;48.774;8.942;2023-04-15T01:26:45;1.10;99.90
69031;DHT22;56083;48.774;8.942;2023-04-15T01:29:11;1.20;99.90
69031;DHT22;56083;48.774;8.942;2023-04-15T01:31:37;1.10;99.90
69031;DHT22;56083;48.774;8.942;2023-04-15T01:34:03;1.10;99.90
69031;DHT22;56083;48.774;8.942;2023-04-15T01:36:29;1.10;99.90
69031;DHT22;56083;48.774;8.942;2023-04-15T01:38:56;1.10;99.90
69031;DHT22;56083;48.774;8.942;2023-04-15T01:41:26;1.00;99.90
69031;DHT22;56083;48.774;8.942;2023-04-15T01:43:52;1.00;99.90
69031;DHT22;56083;48.774;8.942;2023-04-15T01:46:18;1.00;99.90
69031;DHT22;56083;48.774;8.942;2023-04-15T01:48:44;1.00;99.90
69031;DHT22;56083;48.774;8.942;2023-04-15T01:51:10;0.90;99.90
69031;DHT22;56083;48.774;8.942;2023-04-15T01:53:36;0.80;99.90
69031;DHT22;56083;48.774;8.942;2023-04-15T01:56:02;0.90;99.90
69031;DHT22;56083;48.774;8.942;2023-04-15T01:58:28;0.80;99.90
69031;DHT22;56083;48.774;8.942;2023-04-15T02:00:53;0.90;99.90
69031;DHT22;56083;48.774;8.942;2023-04-15T02:03:19;0.90;99.90
69031;DHT22;56083;48.774;8.942;2023-04-15T02:05:44;1.00;99.90
69031;DHT22;56083;48.774;8.942;2023-04-15T02:08:10;1.00;99.90
69031;DHT22;56083;48.774;8.942;2023-04-15T02:10:37;1.00;99.90
69031;DHT22;56083;48.774;8.942;2023-04-15T02:13:03;1.00;99.90
69031;DHT22;56083;48.774;8.942;2023-04-15T02:15:28;1.00;99.90
69031;DHT22;56083;48.774;8.942;2023-04-15T02:17:54;1.00;99.90
69031;DHT22;56083;48.774;8.942;2023-04-15T02:20:20;0.90;99.90
69031;DHT22;56083;48.774;8.942;2023-04-15T02:22:46;0.80;99.90
69031;DHT22;56083;48.774;8.942;2023-04-15T02:25:13;0.80;99.90
69031;DHT22;56083;48.774;8.942;2023-04-15T02:27:38;0.80;99.90
69031;DHT22;56083;48.774;8.942;2023-04-15T02:30:04;0.90;99.90
69031;DHT22;56083;48.774;8.942;2023-04-15T02:32:31;0.80;99.90
69031;DHT22;56083;48.774;8.942;2023-04-15T02:35:02;0.90;99.90
69031;DHT22;56083;48.774;8.942;2023-04-15T02:37:28;0.80;99.90
69031;DHT22;56083;48.774;8.942;2023-04-15T02:39:55;0.80;99.90
69031;DHT22;56083;48.774;8.942;2023-04-15T02:42:21;0.70;99.90
69031;DHT22;56083;48.774;8.942;2023-04-15T02:44:46;0.70;99.90
69031;DHT22;56083;48.774;8.942;2023-04-15T02:47:12;0.60;99.90
69031;DHT22;56083;48.774;8.942;2023-04-15T02:49:38;0.60;99.90
69031;DHT22;56083;48.774;8.942;2023-04-15T02:52:04;0.60;99.90
69031;DHT22;56083;48.774;8.942;2023-04-15T02:54:30;0.60;99.90
69031;DHT22;56083;48.774;8.942;2023-04-15T02:56:58;0.50;99.90
69031;DHT22;56083;48.774;8.942;2023-04-15T02:59:24;0.60;99.90
69031;DHT22;56083;48.774;8.942;2023-04-15T03:01:50;0.60;99.90
69031;DHT22;56083;48.774;8.942;2023-04-15T03:04:15;0.60;99.90
69031;DHT22;56083;48.774;8.942;2023-04-15T03:06:41;0.60;99.90
69031;DHT22;56083;48.774;8.942;2023-04-15T03:09:07;0.60;99.90
69031;DHT22;56083;48.774;8.942;2023-04-15T03:11:32;0.60;99.90
69031;DHT22;56083;48.774;8.942;2023-04-15T03:13:59;0.60;99.90
69031;DHT22;56083;48.774;8.942;2023-04-15T03:16:25;0.60;99.90
69031;DHT22;56083;48.774;8.942;2023-04-15T03:18:51;0.50;99.90
69031;DHT22;56083;48.774;8.942;2023-04-15T03:21:17;0.50;99.90
69031;DHT22;56083;48.774;8.942;2023-04-15T03:23:44;0.40;99.90
69031;DHT22;56083;48.774;8.942;2023-04-15T03:26:26;0.40;99.90
69031;DHT22;56083;48.774;8.942;2023-04-15T03:28:52;0.40;99.90
69031;DHT22;56083;48.774;8.942;2023-04-15T03:31:18;0.40;99.90
69031;DHT22;56083;48.774;8.942;2023-04-15T03:33:43;0.40;99.90
69031;DHT22;56083;48.774;8.942;2023-04-15T03:36:09;0.50;99.90
69031;DHT22;56083;48.774;8.942;2023-04-15T03:38:35;0.50;99.90
69031;DHT22;56083;48.774;8.942;2023-04-15T03:41:01;0.50;99.90
69031;DHT22;56083;48.774;8.942;2023-04-15T03:43:26;0.50;99.90
69031;DHT22;56083;48.774;8.942;2023-04-15T03:45:52;0.50;99.90
69031;DHT22;56083;48.774;8.942;2023-04-15T03:48:18;0.40;99.90
69031;DHT22;56083;48.774;8.942;2023-04-15T03:50:43;0.40;99.90
69031;DHT22;56083;48.774;8.942;2023-04-15T03:53:09;0.40;99.90
69031;DHT22;56083;48.774;8.942;2023-04-15T03:55:35;0.40;99.90
69031;DHT22;56083;48.774;8.942;2023-04-15T03:58:01;0.30;99.90
69031;DHT22;56083;48.774;8.942;2023-04-15T04:00:26;0.30;99.90
69031;DHT22;56083;48.774;8.942;2023-04-15T04:02:52;0.30;99.90
69031;DHT22;56083;48.774;8.942;2023-04-15T04:05:18;0.30;99.90
69031;DHT22;56083;48.774;8.942;2023-04-15T04:07:43;0.30;99.90
69031;DHT22;56083;48.774;8.942;2023-04-15T04:10:09;0.30;99.90
69031;DHT22;56083;48.774;8.942;2023-04-15T04:12:35;0.20;99.90
69031;DHT22;56083;48.774;8.942;2023-04-15T04:15:00;0.20;99.90
69031;DHT22;56083;48.774;8.942;2023-04-15T04:17:26;0.10;99.90
69031;DHT22;56083;48.774;8.942;2023-04-15T04:19:51;0.10;99.90
69031;DHT22;56083;48.774;8.942;2023-04-15T04:22:20;0.00;99.90
69031;DHT22;56083;48.774;8.942;2023-04-15T04:24:46;0.00;99.90
69031;DHT22;56083;48.774;8.942;2023-04-15T04:27:11;0.00;99.90
69031;DHT22;56083;48.774;8.942;2023-04-15T04:29:37;0.00;99.90
69031;DHT22;56083;48.774;8.942;2023-04-15T04:32:03;0.00;99.90
69031;DHT22;56083;48.774;8.942;2023-04-15T04:34:28;0.00;99.90
69031;DHT22;56083;48.774;8.942;2023-04-15T04:36:54;0.00;99.90
69031;DHT22;56083;48.774;8.942;2023-04-15T04:39:20;0.00;99.90
69031;DHT22;56083;48.774;8.942;2023-04-15T04:41:45;0.10;99.90
69031;DHT22;56083;48.774;8.942;2023-04-15T04:44:11;0.10;99.90
69031;DHT22;56083;48.774;8.942;2023-04-15T04:46:37;0.10;99.90
69031;DHT22;56083;48.774;8.942;2023-04-15T04:49:02;0.20;99.90
69031;DHT22;56083;48.774;8.942;2023-04-15T04:51:28;0.20;99.90
69031;DHT22;56083;48.774;8.942;2023-04-15T04:53:53;0.20;99.90
69031;DHT22;56083;48.774;8.942;2023-04-15T04:56:19;0.20;99.90
69031;DHT22;56083;48.774;8.942;2023-04-15T04:58:45;0.20;99.90
69031;DHT22;56083;48.774;8.942;2023-04-15T05:01:11;0.30;99.90
69031;DHT22;56083;48.774;8.942;2023-04-15T05:03:37;0.30;99.90
69031;DHT22;56083;48.774;8.942;2023-04-15T05:06:03;0.30;99.90
69031;DHT22;56083;48.774;8.942;2023-04-15T05:08:30;0.30;99.90
69031;DHT22;56083;48.774;8.942;2023-04-15T05:10:56;0.30;99.90
69031;DHT22;56083;48.774;8.942;2023-04-15T05:13:22;0.40;99.90
69031;DHT22;56083;48.774;8.942;2023-04-15T05:15:47;0.40;99.90
69031;DHT22;56083;48.774;8.942;2023-04-15T05:18:13;0.50;99.90
69031;DHT22;56083;48.774;8.942;2023-04-15T05:20:38;0.60;99.90
69031;DHT22;56083;48.774;8.942;2023-04-15T05:23:04;0.70;99.90
69031;DHT22;56083;48.774;8.942;2023-04-15T05:25:30;0.70;99.90
69031;DHT22;56083;48.774;8.942;2023-04-15T05:27:56;0.80;99.90
69031;DHT22;56083;48.774;8.942;2023-04-15T05:30:22;0.80;99.90
69031;DHT22;56083;48.774;8.942;2023-04-15T05:32:47;0.90;99.90
69031;DHT22;56083;48.774;8.942;2023-04-15T05:35:13;1.00;99.90
69031;DHT22;56083;48.774;8.942;2023-04-15T05:37:39;1.00;99.90
69031;DHT22;56083;48.774;8.942;2023-04-15T05:40:06;1.10;99.90
69031;DHT22;56083;48.774;8.942;2023-04-15T05:42:34;1.20;99.90
69031;DHT22;56083;48.774;8.942;2023-04-15T05:45:01;1.30;99.90
69031;DHT22;56083;48.774;8.942;2023-04-15T05:47:30;1.40;99.90
69031;DHT22;56083;48.774;8.942;2023-04-15T05:49:56;1.60;99.90
69031;DHT22;56083;48.774;8.942;2023-04-15T05:52:23;1.70;99.90
69031;DHT22;56083;48.774;8.942;2023-04-15T05:54:50;1.80;99.90
69031;DHT22;56083;48.774;8.942;2023-04-15T05:57:16;1.90;99.90
69031;DHT22;56083;48.774;8.942;2023-04-15T05:59:41;2.00;99.90
69031;DHT22;56083;48.774;8.942;2023-04-15T06:02:08;2.20;99.90
69031;DHT22;56083;48.774;8.942;2023-04-15T06:04:34;2.20;99.90
69031;DHT22;56083;48.774;8.942;2023-04-15T06:06:59;2.40;99.90
69031;DHT22;56083;48.774;8.942;2023-04-15T06:09:25;2.50;99.90
69031;DHT22;56083;48.774;8.942;2023-04-15T06:11:52;2.60;99.90
69031;DHT22;56083;48.774;8.942;2023-04-15T06:14:17;2.80;99.90
69031;DHT22;56083;48.774;8.942;2023-04-15T06:16:43;3.00;99.90
69031;DHT22;56083;48.774;8.942;2023-04-15T06:19:08;3.20;99.90
69031;DHT22;56083;48.774;8.942;2023-04-15T06:21:34;3.30;99.90
69031;DHT22;56083;48.774;8.942;2023-04-15T06:24:00;3.50;99.90
69031;DHT22;56083;48.774;8.942;2023-04-15T06:26:26;3.60;99.90
69031;DHT22;56083;48.774;8.942;2023-04-15T06:28:52;3.80;99.90
69031;DHT22;56083;48.774;8.942;2023-04-15T06:31:18;4.10;99.90
69031;DHT22;56083;48.774;8.942;2023-04-15T06:33:43;4.40;99.90
69031;DHT22;56083;48.774;8.942;2023-04-15T06:36:09;4.60;99.90
69031;DHT22;56083;48.774;8.942;2023-04-15T06:38:35;4.90;99.90
69031;DHT22;56083;48.774;8.942;2023-04-15T06:41:02;5.10;99.90
69031;DHT22;56083;48.774;8.942;2023-04-15T06:43:27;5.30;99.90
69031;DHT22;56083;48.774;8.942;2023-04-15T06:45:54;5.50;99.90
69031;DHT22;56083;48.774;8.942;2023-04-15T06:48:19;6.00;99.90
69031;DHT22;56083;48.774;8.942;2023-04-15T06:50:45;6.50;99.90
69031;DHT22;56083;48.774;8.942;2023-04-15T06:53:10;6.90;99.90
69031;DHT22;56083;48.774;8.942;2023-04-15T06:55:36;7.40;99.90
69031;DHT22;56083;48.774;8.942;2023-04-15T06:58:02;7.60;99.90
69031;DHT22;56083;48.774;8.942;2023-04-15T07:00:27;8.00;99.90
69031;DHT22;56083;48.774;8.942;2023-04-15T07:02:53;8.30;99.90
69031;DHT22;56083;48.774;8.942;2023-04-15T07:05:19;8.30;99.90
69031;DHT22;56083;48.774;8.942;2023-04-15T07:07:45;8.40;99.90
69031;DHT22;56083;48.774;8.942;2023-04-15T07:10:11;9.20;99.90
69031;DHT22;56083;48.774;8.942;2023-04-15T07:12:37;9.70;99.90
69031;DHT22;56083;48.774;8.942;2023-04-15T07:15:03;10.10;99.90
69031;DHT22;56083;48.774;8.942;2023-04-15T07:17:29;10.40;99.90
69031;DHT22;56083;48.774;8.942;2023-04-15T07:19:54;10.90;99.90
69031;DHT22;56083;48.774;8.942;2023-04-15T07:22:20;11.30;99.90
69031;DHT22;56083;48.774;8.942;2023-04-15T07:24:47;11.60;99.90
69031;DHT22;56083;48.774;8.942;2023-04-15T07:27:12;11.90;99.90
69031;DHT22;56083;48.774;8.942;2023-04-15T07:29:38;12.10;99.90
69031;DHT22;56083;48.774;8.942;2023-04-15T07:32:04;12.20;99.90
69031;DHT22;56083;48.774;8.942;2023-04-15T07:34:30;12.50;99.90
69031;DHT22;56083;48.774;8.942;2023-04-15T07:36:55;12.50;99.90
69031;DHT22;56083;48.774;8.942;2023-04-15T07:39:21;12.40;99.90
69031;DHT22;56083;48.774;8.942;2023-04-15T07:41:47;12.40;99.90
69031;DHT22;56083;48.774;8.942;2023-04-15T07:44:13;12.50;99.90
69031;DHT22;56083;48.774;8.942;2023-04-15T07:46:39;13.00;99.90
69031;DHT22;56083;48.774;8.942;2023-04-15T07:49:05;13.30;99.90
69031;DHT22;56083;48.774;8.942;2023-04-15T07:51:31;13.50;99.90
69031;DHT22;56083;48.774;8.942;2023-04-15T07:53:57;13.40;99.90
69031;DHT22;56083;48.774;8.942;2023-04-15T07:56:23;13.60;99.90
69031;DHT22;56083;48.774;8.942;2023-04-15T07:58:49;13.80;99.90
69031;DHT22;56083;48.774;8.942;2023-04-15T08:01:14;13.90;99.90
69031;DHT22;56083;48.774;8.942;2023-04-15T08:03:40;14.30;99.90
69031;DHT22;56083;48.774;8.942;2023-04-15T08:06:06;14.70;99.90
69031;DHT22;56083;48.774;8.942;2023-04-15T08:08:32;15.10;99.90
69031;DHT22;56083;48.774;8.942;2023-04-15T08:10:57;15.90;99.90
69031;DHT22;56083;48.774;8.942;2023-04-15T08:13:23;17.30;99.90
69031;DHT22;56083;48.774;8.942;2023-04-15T08:16:14;18.50;99.90
69031;DHT22;56083;48.774;8.942;2023-04-15T08:18:39;19.90;99.90
69031;DHT22;56083;48.774;8.942;2023-04-15T08:21:05;21.10;99.90
69031;DHT22;56083;48.774;8.942;2023-04-15T08:23:31;22.20;97.10
69031;DHT22;56083;48.774;8.942;2023-04-15T08:25:57;23.00;94.00
69031;DHT22;56083;48.774;8.942;2023-04-15T08:28:23;23.50;89.50
69031;DHT22;56083;48.774;8.942;2023-04-15T08:30:49;23.30;83.10
69031;DHT22;56083;48.774;8.942;2023-04-15T08:33:15;22.20;80.10
69031;DHT22;56083;48.774;8.942;2023-04-15T08:35:41;21.60;80.10
69031;DHT22;56083;48.774;8.942;2023-04-15T08:38:06;20.70;83.20
69031;DHT22;56083;48.774;8.942;2023-04-15T08:40:40;20.20;82.90
69031;DHT22;56083;48.774;8.942;2023-04-15T08:43:09;19.60;84.20
69031;DHT22;56083;48.774;8.942;2023-04-15T08:45:37;18.60;86.70
69031;DHT22;56083;48.774;8.942;2023-04-15T08:48:04;18.10;85.80
69031;DHT22;56083;48.774;8.942;2023-04-15T08:50:31;17.90;88.40
69031;DHT22;56083;48.774;8.942;2023-04-15T08:53:01;17.90;87.40
69031;DHT22;56083;48.774;8.942;2023-04-15T08:55:29;18.00;89.90
69031;DHT22;56083;48.774;8.942;2023-04-15T08:57:58;18.50;87.80
69031;DHT22;56083;48.774;8.942;2023-04-15T09:00:25;19.00;87.90
69031;DHT22;56083;48.774;8.942;2023-04-15T09:02:51;19.70;82.50
69031;DHT22;56083;48.774;8.942;2023-04-15T09:05:17;20.00;80.40
69031;DHT22;56083;48.774;8.942;2023-04-15T09:07:42;20.00;78.40
69031;DHT22;56083;48.774;8.942;2023-04-15T09:10:08;20.10;79.70
69031;DHT22;56083;48.774;8.942;2023-04-15T09:12:34;20.70;78.10
69031;DHT22;56083;48.774;8.942;2023-04-15T09:15:01;21.10;75.30
69031;DHT22;56083;48.774;8.942;2023-04-15T09:17:27;21.50;74.40
69031;DHT22;56083;48.774;8.942;2023-04-15T09:20:13;21.60;75.50
69031;DHT22;56083;48.774;8.942;2023-04-15T09:22:43;22.00;72.40
69031;DHT22;56083;48.774;8.942;2023-04-15T09:25:29;22.50;74.80
69031;DHT22;56083;48.774;8.942;2023-04-15T09:28:00;22.60;70.40
69031;DHT22;56083;48.774;8.942;2023-04-15T09:30:29;22.10;71.50
69031;DHT22;56083;48.774;8.942;2023-04-15T09:33:00;22.50;69.20
69031;DHT22;56083;48.774;8.942;2023-04-15T09:35:35;22.20;69.50
69031;DHT22;56083;48.774;8.942;2023-04-15T09:38:06;21.10;69.40
69031;DHT22;56083;48.774;8.942;2023-04-15T09:40:40;20.90;69.90
69031;DHT22;56083;48.774;8.942;2023-04-15T09:43:07;20.60;73.40
69031;DHT22;56083;48.774;8.942;2023-04-15T09:45:34;20.40;74.50
69031;DHT22;56083;48.774;8.942;2023-04-15T09:48:20;20.60;74.30
69031;DHT22;56083;48.774;8.942;2023-04-15T09:50:47;21.10;73.30
69031;DHT22;56083;48.774;8.942;2023-04-15T09:53:18;22.00;70.90
69031;DHT22;56083;48.774;8.942;2023-04-15T09:55:58;22.10;68.90
69031;DHT22;56083;48.774;8.942;2023-04-15T09:58:29;22.40;66.60
69031;DHT22;56083;48.774;8.942;2023-04-15T10:00:56;22.20;66.90
69031;DHT22;56083;48.774;8.942;2023-04-15T10:05:51;20.30;66.80
69031;DHT22;56083;48.774;8.942;2023-04-15T10:08:28;20.10;68.00
69031;DHT22;56083;48.774;8.942;2023-04-15T10:10:54;20.10;68.60
69031;DHT22;56083;48.774;8.942;2023-04-15T10:13:23;19.50;68.70
69031;DHT22;56083;48.774;8.942;2023-04-15T10:15:57;19.10;71.10
69031;DHT22;56083;48.774;8.942;2023-04-15T10:18:29;18.90;70.60
69031;DHT22;56083;48.774;8.942;2023-04-15T10:20:58;18.90;73.50
69031;DHT22;56083;48.774;8.942;2023-04-15T10:23:25;18.90;70.00
69031;DHT22;56083;48.774;8.942;2023-04-15T10:25:52;19.10;68.20
69031;DHT22;56083;48.774;8.942;2023-04-15T10:28:21;19.10;69.80
69031;DHT22;56083;48.774;8.942;2023-04-15T10:30:47;19.20;68.90
69031;DHT22;56083;48.774;8.942;2023-04-15T10:33:16;19.40;72.70
69031;DHT22;56083;48.774;8.942;2023-04-15T10:35:42;19.40;70.10
69031;DHT22;56083;48.774;8.942;2023-04-15T10:41:22;19.80;71.90
69031;DHT22;56083;48.774;8.942;2023-04-15T10:44:02;19.00;69.80
69031;DHT22;56083;48.774;8.942;2023-04-15T10:46:36;18.50;73.70
69031;DHT22;56083;48.774;8.942;2023-04-15T10:49:15;17.90;73.20
69031;DHT22;56083;48.774;8.942;2023-04-15T10:51:50;17.30;73.60
69031;DHT22;56083;48.774;8.942;2023-04-15T10:54:36;17.20;75.00
69031;DHT22;56083;48.774;8.942;2023-04-15T10:59:29;17.10;73.60
69031;DHT22;56083;48.774;8.942;2023-04-15T11:02:00;17.40;73.70
69031;DHT22;56083;48.774;8.942;2023-04-15T11:07:53;18.00;74.20
69031;DHT22;56083;48.774;8.942;2023-04-15T11:13:02;19.10;69.80
69031;DHT22;56083;48.774;8.942;2023-04-15T11:15:32;19.20;70.00
69031;DHT22;56083;48.774;8.942;2023-04-15T11:20:40;18.50;72.40
69031;DHT22;56083;48.774;8.942;2023-04-15T11:23:07;18.60;75.60
69031;DHT22;56083;48.774;8.942;2023-04-15T11:25:35;19.00;74.30
69031;DHT22;56083;48.774;8.942;2023-04-15T11:28:04;19.20;74.30
69031;DHT22;56083;48.774;8.942;2023-04-15T11:30:35;18.90;73.70
69031;DHT22;56083;48.774;8.942;2023-04-15T11:33:07;18.30;71.80
69031;DHT22;56083;48.774;8.942;2023-04-15T11:35:34;18.40;74.70
69031;DHT22;56083;48.774;8.942;2023-04-15T11:38:10;19.40;69.90
69031;DHT22;56083;48.774;8.942;2023-04-15T11:40:37;20.10;69.10
69031;DHT22;56083;48.774;8.942;2023-04-15T11:43:23;20.80;68.40
69031;DHT22;56083;48.774;8.942;2023-04-15T11:48:16;21.60;68.70
69031;DHT22;56083;48.774;8.942;2023-04-15T11:50:42;21.70;67.50
69031;DHT22;56083;48.774;8.942;2023-04-15T11:53:12;22.40;67.20
69031;DHT22;56083;48.774;8.942;2023-04-15T11:55:46;22.70;66.60
69031;DHT22;56083;48.774;8.942;2023-04-15T11:58:23;22.40;63.30
69031;DHT22;56083;48.774;8.942;2023-04-15T12:00:57;21.70;65.90
69031;DHT22;56083;48.774;8.942;2023-04-15T12:03:28;21.30;66.70
69031;DHT22;56083;48.774;8.942;2023-04-15T12:06:22;20.80;69.20
69031;DHT22;56083;48.774;8.942;2023-04-15T12:13:54;18.90;75.10
69031;DHT22;56083;48.774;8.942;2023-04-15T12:16:21;18.20;75.50
69031;DHT22;56083;48.774;8.942;2023-04-15T12:18:56;17.60;78.00
69031;DHT22;56083;48.774;8.942;2023-04-15T12:21:23;17.30;77.10
69031;DHT22;56083;48.774;8.942;2023-04-15T12:26:26;18.10;73.80
69031;DHT22;56083;48.774;8.942;2023-04-15T12:36:32;22.30;60.60
69031;DHT22;56083;48.774;8.942;2023-04-15T12:39:03;23.30;57.40
69031;DHT22;56083;48.774;8.942;2023-04-15T12:41:30;24.20;55.30
69031;DHT22;56083;48.774;8.942;2023-04-15T12:43:59;23.80;56.20
69031;DHT22;56083;48.774;8.942;2023-04-15T12:46:26;24.40;55.70
69031;DHT22;56083;48.774;8.942;2023-04-15T12:48:56;24.30;56.10
69031;DHT22;56083;48.774;8.942;2023-04-15T12:51:22;25.10;55.00
69031;DHT22;56083;48.774;8.942;2023-04-15T12:53:49;25.60;52.20
69031;DHT22;56083;48.774;8.942;2023-04-15T12:56:18;25.80;53.00
69031;DHT22;56083;48.774;8.942;2023-04-15T12:58:44;26.00;56.60
69031;DHT22;56083;48.774;8.942;2023-04-15T13:01:11;25.50;59.20
69031;DHT22;56083;48.774;8.942;2023-04-15T13:03:37;24.60;59.90
69031;DHT22;56083;48.774;8.942;2023-04-15T13:08:45;21.10;66.10
69031;DHT22;56083;48.774;8.942;2023-04-15T13:11:10;19.20;70.10
69031;DHT22;56083;48.774;8.942;2023-04-15T13:16:15;17.30;74.80
69031;DHT22;56083;48.774;8.942;2023-04-15T13:18:41;16.50;73.90
69031;DHT22;56083;48.774;8.942;2023-04-15T13:21:07;15.70;76.30
69031;DHT22;56083;48.774;8.942;2023-04-15T13:23:33;15.00;78.70
69031;DHT22;56083;48.774;8.942;2023-04-15T13:25:59;14.50;82.30
69031;DHT22;56083;48.774;8.942;2023-04-15T13:28:26;13.90;84.30
69031;DHT22;56083;48.774;8.942;2023-04-15T13:30:53;13.40;90.10
69031;DHT22;56083;48.774;8.942;2023-04-15T13:33:19;13.00;90.80
69031;DHT22;56083;48.774;8.942;2023-04-15T13:35:45;12.70;92.10
69031;DHT22;56083;48.774;8.942;2023-04-15T13:38:10;12.50;91.90
69031;DHT22;56083;48.774;8.942;2023-04-15T13:40:36;12.50;91.40
69031;DHT22;56083;48.774;8.942;2023-04-15T13:43:02;12.50;90.90
69031;DHT22;56083;48.774;8.942;2023-04-15T13:45:28;12.60;90.20
69031;DHT22;56083;48.774;8.942;2023-04-15T13:47:55;12.60;90.00
69031;DHT22;56083;48.774;8.942;2023-04-15T13:50:21;12.70;87.90
69031;DHT22;56083;48.774;8.942;2023-04-15T13:52:48;12.80;85.90
69031;DHT22;56083;48.774;8.942;2023-04-15T13:55:13;13.10;81.80
69031;DHT22;56083;48.774;8.942;2023-04-15T13:57:40;13.20;79.50
69031;DHT22;56083;48.774;8.942;2023-04-15T14:00:08;13.60;78.20
69031;DHT22;56083;48.774;8.942;2023-04-15T14:02:34;13.90;76.40
69031;DHT22;56083;48.774;8.942;2023-04-15T14:05:00;14.20;76.20
69031;DHT22;56083;48.774;8.942;2023-04-15T14:07:26;14.50;73.50
69031;DHT22;56083;48.774;8.942;2023-04-15T14:09:54;14.60;73.20
69031;DHT22;56083;48.774;8.942;2023-04-15T14:12:19;14.50;71.70
69031;DHT22;56083;48.774;8.942;2023-04-15T14:14:45;14.50;74.80
69031;DHT22;56083;48.774;8.942;2023-04-15T14:17:11;14.30;74.70
69031;DHT22;56083;48.774;8.942;2023-04-15T14:19:36;14.10;74.40
69031;DHT22;56083;48.774;8.942;2023-04-15T14:22:02;13.90;74.50
69031;DHT22;56083;48.774;8.942;2023-04-15T14:24:28;13.60;76.50
69031;DHT22;56083;48.774;8.942;2023-04-15T14:26:53;13.50;77.90
69031;DHT22;56083;48.774;8.942;2023-04-15T14:29:19;13.10;78.60
69031;DHT22;56083;48.774;8.942;2023-04-15T14:31:44;12.90;80.10
69031;DHT22;56083;48.774;8.942;2023-04-15T14:34:11;12.80;80.50
69031;DHT22;56083;48.774;8.942;2023-04-15T14:36:37;12.70;81.10
69031;DHT22;56083;48.774;8.942;2023-04-15T14:39:03;12.50;80.80
69031;DHT22;56083;48.774;8.942;2023-04-15T14:41:30;12.40;82.40
69031;DHT22;56083;48.774;8.942;2023-04-15T14:43:56;12.40;83.00
69031;DHT22;56083;48.774;8.942;2023-04-15T14:46:22;12.20;83.80
69031;DHT22;56083;48.774;8.942;2023-04-15T14:48:48;12.10;84.70
69031;DHT22;56083;48.774;8.942;2023-04-15T14:51:14;12.10;85.70
69031;DHT22;56083;48.774;8.942;2023-04-15T14:54:03;12.10;87.50
69031;DHT22;56083;48.774;8.942;2023-04-15T14:56:29;12.10;87.40
69031;DHT22;56083;48.774;8.942;2023-04-15T14:58:54;12.20;87.60
69031;DHT22;56083;48.774;8.942;2023-04-15T15:01:20;12.10;87.60
69031;DHT22;56083;48.774;8.942;2023-04-15T15:03:46;12.00;89.00
69031;DHT22;56083;48.774;8.942;2023-04-15T15:06:12;12.00;89.00
69031;DHT22;56083;48.774;8.942;2023-04-15T15:08:38;11.80;90.00
69031;DHT22;56083;48.774;8.942;2023-04-15T15:11:03;11.80;90.00
69031;DHT22;56083;48.774;8.942;2023-04-15T15:13:30;11.80;90.60
69031;DHT22;56083;48.774;8.942;2023-04-15T15:15:57;11.90;91.10
69031;DHT22;56083;48.774;8.942;2023-04-15T15:18:23;12.00;91.90
69031;DHT22;56083;48.774;8.942;2023-04-15T15:20:50;12.00;91.10
69031;DHT22;56083;48.774;8.942;2023-04-15T15:23:15;12.10;91.20
69031;DHT22;56083;48.774;8.942;2023-04-15T15:25:41;12.00;91.40
69031;DHT22;56083;48.774;8.942;2023-04-15T15:28:07;12.10;91.70
69031;DHT22;56083;48.774;8.942;2023-04-15T15:30:33;12.10;91.30
69031;DHT22;56083;48.774;8.942;2023-04-15T15:32:59;12.20;91.50
69031;DHT22;56083;48.774;8.942;2023-04-15T15:35:25;12.30;91.60
69031;DHT22;56083;48.774;8.942;2023-04-15T15:37:51;12.30;90.90
69031;DHT22;56083;48.774;8.942;2023-04-15T15:40:17;12.20;91.20
69031;DHT22;56083;48.774;8.942;2023-04-15T15:42:42;12.10;91.20
69031;DHT22;56083;48.774;8.942;2023-04-15T15:45:10;12.00;91.30
69031;DHT22;56083;48.774;8.942;2023-04-15T15:47:35;11.90;91.80
69031;DHT22;56083;48.774;8.942;2023-04-15T15:50:01;11.70;91.90
69031;DHT22;56083;48.774;8.942;2023-04-15T15:52:27;11.60;92.30
69031;DHT22;56083;48.774;8.942;2023-04-15T15:54:53;11.50;92.10
69031;DHT22;56083;48.774;8.942;2023-04-15T15:57:24;11.40;92.30
69031;DHT22;56083;48.774;8.942;2023-04-15T15:59:53;11.30;91.80
69031;DHT22;56083;48.774;8.942;2023-04-15T16:02:18;11.20;92.50
69031;DHT22;56083;48.774;8.942;2023-04-15T16:04:47;11.30;92.20
69031;DHT22;56083;48.774;8.942;2023-04-15T16:07:14;11.40;92.90
69031;DHT22;56083;48.774;8.942;2023-04-15T16:09:40;11.30;93.00
69031;DHT22;56083;48.774;8.942;2023-04-15T16:12:07;11.40;93.40
69031;DHT22;56083;48.774;8.942;2023-04-15T16:14:32;11.40;93.90
69031;DHT22;56083;48.774;8.942;2023-04-15T16:16:58;11.50;93.80